Warman, Canada
Current Conditions -  °F | °C
As of 10:00 AM on Thursday 23 Oct 2014 (Local Time) from CYXE Reporting Station
Broken Clouds Broken Clouds  
Wind Chill: 38°   Ceiling: 12000
Heat Index: 43°   Visibility: 15mi
Dew Point: 37°   Wind: 8mph
Humidity: 81%   Direction: 150°SSE
Pressure: 29.64"   Gusts: NA
Location:  52.32°N, 106.57°W
Report Text: CYXE 231600Z 15007KT 15SM BKN120 BKN250 06/03 A2964 RMK AC6CI1 SLP056
Loading
Personal Weather Stations






























Interactive Weather Map
Tropical Storm Tracking
New forecast layout! Learn more

10-Day Weather Forecast

Advertisements
Track Severe Weather on mobile